createdAt,value
2022-09-01T00:00:22.082Z,10.00
2022-09-01T00:02:51.475Z,10.00
2022-09-01T00:05:20.216Z,9.90
2022-09-01T00:07:50.458Z,9.90
2022-09-01T00:10:19.035Z,9.90
2022-09-01T00:12:47.700Z,9.90
2022-09-01T00:15:16.310Z,9.90
2022-09-01T00:17:44.993Z,9.90
2022-09-01T00:20:19.640Z,9.90
2022-09-01T00:22:50.525Z,9.90
2022-09-01T00:25:20.517Z,9.90
2022-09-01T00:27:49.821Z,9.80
2022-09-01T00:30:23.141Z,9.80
2022-09-01T00:32:51.742Z,9.90
2022-09-01T00:35:21.651Z,9.80
2022-09-01T00:37:51.703Z,9.90
2022-09-01T00:40:20.692Z,10.10
2022-09-01T00:42:50.362Z,10.10
2022-09-01T00:45:21.226Z,10.00
2022-09-01T00:47:51.738Z,9.90
2022-09-01T00:50:22.565Z,9.80
2022-09-01T00:52:56.699Z,9.70
2022-09-01T00:55:32.658Z,9.70
2022-09-01T00:58:03.475Z,9.60
2022-09-01T01:00:41.866Z,9.60
2022-09-01T01:05:23.500Z,9.70
2022-09-01T01:07:52.375Z,9.70
2022-09-01T01:10:25.263Z,9.70
2022-09-01T01:12:54.168Z,9.70
2022-09-01T01:15:22.984Z,9.60
2022-09-01T01:17:51.474Z,9.60
2022-09-01T01:20:44.677Z,9.70
2022-09-01T01:23:26.436Z,9.80
2022-09-01T01:26:00.069Z,9.80
2022-09-01T01:28:32.269Z,9.70
2022-09-01T01:31:06.257Z,9.60
2022-09-01T01:33:42.845Z,9.50
2022-09-01T01:36:16.167Z,9.50
2022-09-01T01:38:49.793Z,9.50
2022-09-01T01:41:22.238Z,9.50
2022-09-01T01:43:51.211Z,9.50
2022-09-01T01:46:20.764Z,9.50
2022-09-01T01:48:52.502Z,9.50
2022-09-01T01:51:25.131Z,9.40
2022-09-01T01:53:56.106Z,9.40
2022-09-01T01:56:26.446Z,9.40
2022-09-01T01:58:57.821Z,9.30
2022-09-01T02:01:30.242Z,9.30
2022-09-01T02:04:01.051Z,9.20
2022-09-01T02:06:30.402Z,9.20
2022-09-01T02:09:01.738Z,9.20
2022-09-01T02:11:34.025Z,9.10
2022-09-01T02:14:03.006Z,9.10
2022-09-01T02:16:34.309Z,9.10
2022-09-01T02:19:07.501Z,9.10
2022-09-01T02:21:36.204Z,9.10
2022-09-01T02:24:08.634Z,9.10
2022-09-01T02:26:50.528Z,9.10
2022-09-01T02:29:23.999Z,9.10
2022-09-01T02:31:55.107Z,9.00
2022-09-01T02:34:29.415Z,8.90
2022-09-01T02:36:59.494Z,8.90
2022-09-01T02:39:33.802Z,8.90
2022-09-01T02:42:04.045Z,8.80
2022-09-01T02:44:32.838Z,8.80
2022-09-01T02:47:02.184Z,8.80
2022-09-01T02:49:31.638Z,8.80
2022-09-01T02:52:02.939Z,8.70
2022-09-01T02:54:33.920Z,8.80
2022-09-01T02:57:04.692Z,8.80
2022-09-01T02:59:37.923Z,8.90
2022-09-01T03:05:25.550Z,8.90
2022-09-01T03:07:58.004Z,8.90
2022-09-01T03:10:33.817Z,9.00
2022-09-01T03:13:04.902Z,9.10
2022-09-01T03:15:34.673Z,9.30
2022-09-01T03:18:03.879Z,9.30
2022-09-01T03:20:37.385Z,9.40
2022-09-01T03:23:09.721Z,9.40
2022-09-01T03:25:39.016Z,9.30
2022-09-01T03:28:09.502Z,9.20
2022-09-01T03:30:40.519Z,9.10
2022-09-01T03:33:11.222Z,9.00
2022-09-01T03:35:42.077Z,8.90
2022-09-01T03:38:13.028Z,8.90
2022-09-01T03:40:42.546Z,8.90
2022-09-01T03:43:14.021Z,8.80
2022-09-01T03:45:43.589Z,8.80
2022-09-01T03:48:12.938Z,8.70
2022-09-01T03:50:46.300Z,8.70
2022-09-01T03:53:17.925Z,8.70
2022-09-01T03:55:49.114Z,8.70
2022-09-01T03:58:20.613Z,8.80
2022-09-01T04:00:56.275Z,8.80
2022-09-01T04:03:31.164Z,8.90
2022-09-01T04:06:03.683Z,8.90
2022-09-01T04:08:32.960Z,8.80
2022-09-01T04:11:05.638Z,8.90
2022-09-01T04:13:39.966Z,8.90
2022-09-01T04:16:38.171Z,8.90
2022-09-01T04:19:16.192Z,8.90
2022-09-01T04:21:47.095Z,9.00
2022-09-01T04:24:16.035Z,9.10
2022-09-01T04:26:48.308Z,9.00
2022-09-01T04:29:19.469Z,8.90
2022-09-01T04:31:53.743Z,8.80
2022-09-01T04:34:27.088Z,8.80
2022-09-01T04:36:59.075Z,8.80
2022-09-01T04:39:28.655Z,8.80
2022-09-01T04:41:57.254Z,8.90
2022-09-01T04:44:26.463Z,9.00
2022-09-01T04:46:55.796Z,8.90
2022-09-01T04:49:26.519Z,9.00
2022-09-01T04:51:56.959Z,9.00
2022-09-01T04:54:25.924Z,9.00
2022-09-01T04:56:55.174Z,9.10
2022-09-01T04:59:27.368Z,9.10
2022-09-01T05:05:31.015Z,9.20
2022-09-01T05:07:59.615Z,9.30
2022-09-01T05:10:30.225Z,9.30
2022-09-01T05:13:10.213Z,9.40
2022-09-01T05:15:43.095Z,9.50
2022-09-01T05:18:12.936Z,9.60
2022-09-01T05:20:44.305Z,9.70
2022-09-01T05:23:14.389Z,9.90
2022-09-01T05:25:46.032Z,10.10
2022-09-01T05:28:14.724Z,10.30
2022-09-01T05:30:46.860Z,10.60
2022-09-01T05:33:21.234Z,11.00
2022-09-01T05:36:00.508Z,11.50
2022-09-01T05:38:30.976Z,11.90
2022-09-01T05:41:03.958Z,12.30
2022-09-01T05:43:34.010Z,12.70
2022-09-01T05:46:07.666Z,13.40
2022-09-01T05:48:40.348Z,14.60
2022-09-01T05:51:40.345Z,15.30
2022-09-01T05:54:09.532Z,15.60
2022-09-01T05:56:44.904Z,15.50
2022-09-01T05:59:23.401Z,15.20
2022-09-01T06:01:54.332Z,14.90
2022-09-01T06:04:25.710Z,14.70
2022-09-01T06:07:06.672Z,14.50
2022-09-01T06:09:39.971Z,14.40
2022-09-01T06:12:18.361Z,14.10
2022-09-01T06:14:48.748Z,14.10
2022-09-01T06:17:19.690Z,14.00
2022-09-01T06:19:48.658Z,14.00
2022-09-01T06:22:19.157Z,14.10
2022-09-01T06:24:54.491Z,14.40
2022-09-01T06:27:24.342Z,14.60
2022-09-01T06:29:56.432Z,14.80
2022-09-01T06:32:26.234Z,15.20
2022-09-01T06:34:58.292Z,15.50
2022-09-01T06:37:29.037Z,15.80
2022-09-01T06:39:58.082Z,16.10
2022-09-01T06:42:26.782Z,16.30
2022-09-01T06:44:55.661Z,16.30
2022-09-01T06:47:24.347Z,16.30
2022-09-01T06:49:57.864Z,16.90
2022-09-01T06:52:28.466Z,17.20
2022-09-01T06:54:57.931Z,18.90
2022-09-01T07:00:21.230Z,22.90
2022-09-01T07:08:20.911Z,27.60
2022-09-01T07:16:51.835Z,29.70
2022-09-01T07:25:12.756Z,30.90
2022-09-01T07:27:50.641Z,31.10
2022-09-01T07:30:24.014Z,30.80
2022-09-01T07:32:53.948Z,31.20
2022-09-01T07:35:24.369Z,31.10
2022-09-01T07:38:48.181Z,31.60
2022-09-01T07:43:34.322Z,31.80
2022-09-01T07:51:51.027Z,31.60
2022-09-01T07:54:25.399Z,31.40
2022-09-01T07:56:54.898Z,31.50
2022-09-01T07:59:24.049Z,31.20
2022-09-01T08:01:52.915Z,29.50
2022-09-01T08:04:23.206Z,28.30
2022-09-01T08:06:52.013Z,28.90
2022-09-01T08:09:37.244Z,30.20
2022-09-01T08:12:08.817Z,30.00
2022-09-01T08:14:37.387Z,30.20
2022-09-01T08:17:17.669Z,28.90
2022-09-01T08:19:47.210Z,27.20
2022-09-01T08:22:16.351Z,25.40
2022-09-01T08:24:49.802Z,24.00
2022-09-01T08:27:19.538Z,23.30
2022-09-01T08:29:49.044Z,23.00
2022-09-01T08:32:17.806Z,23.30
2022-09-01T08:34:46.475Z,23.50
2022-09-01T08:37:15.049Z,24.50
2022-09-01T08:39:43.859Z,24.50
2022-09-01T08:42:30.045Z,24.80
2022-09-01T08:45:13.061Z,26.40
2022-09-01T08:47:58.586Z,28.50
2022-09-01T08:50:31.227Z,28.30
2022-09-01T08:53:12.306Z,28.30
2022-09-01T08:55:47.529Z,28.90
2022-09-01T08:58:19.793Z,29.40
2022-09-01T09:00:58.034Z,30.50
2022-09-01T09:05:40.289Z,31.80
2022-09-01T09:09:04.068Z,30.60
2022-09-01T09:12:08.840Z,28.10
2022-09-01T09:14:57.827Z,27.20
2022-09-01T09:17:34.644Z,27.70
2022-09-01T09:20:06.564Z,27.70
2022-09-01T09:22:36.497Z,27.90
2022-09-01T09:25:11.784Z,28.50
2022-09-01T09:27:43.566Z,29.40
2022-09-01T09:30:15.103Z,29.80
2022-09-01T09:35:42.329Z,29.80
2022-09-01T09:38:29.500Z,30.40
2022-09-01T09:41:20.630Z,31.20
2022-09-01T09:43:59.283Z,31.20
2022-09-01T09:46:37.813Z,31.10
2022-09-01T09:49:21.603Z,30.90
2022-09-01T09:52:19.321Z,30.80
2022-09-01T09:55:06.527Z,31.00
2022-09-01T09:57:42.276Z,31.60
2022-09-01T10:00:24.477Z,31.80
2022-09-01T10:03:07.809Z,30.90
2022-09-01T10:05:43.365Z,30.10
2022-09-01T10:08:16.689Z,29.70
2022-09-01T10:10:58.002Z,28.70
2022-09-01T10:13:31.422Z,29.30
2022-09-01T10:16:08.069Z,30.20
2022-09-01T10:18:41.728Z,29.70
2022-09-01T10:21:16.538Z,28.70
2022-09-01T10:23:45.737Z,27.80
2022-09-01T10:26:25.510Z,26.90
2022-09-01T10:29:00.199Z,27.30
2022-09-01T10:31:32.518Z,28.10
2022-09-01T10:34:06.316Z,28.50
2022-09-01T10:36:37.839Z,27.70
2022-09-01T10:39:12.818Z,28.40
2022-09-01T10:42:07.745Z,28.90
2022-09-01T10:44:39.080Z,28.90
2022-09-01T10:47:25.474Z,27.60
2022-09-01T10:50:10.242Z,26.70
2022-09-01T10:53:08.862Z,26.40
2022-09-01T10:55:46.562Z,26.30
2022-09-01T11:05:22.041Z,27.30
2022-09-01T11:08:00.574Z,27.50
2022-09-01T11:10:49.254Z,27.70
2022-09-01T11:13:49.586Z,27.60
2022-09-01T11:16:51.877Z,27.50
2022-09-01T11:19:38.356Z,27.20
2022-09-01T11:22:19.034Z,26.80
2022-09-01T11:25:26.676Z,26.00
2022-09-01T11:28:25.783Z,25.70
2022-09-01T11:31:00.767Z,25.80
2022-09-01T11:33:46.426Z,25.30
2022-09-01T11:36:25.627Z,25.60
2022-09-01T11:39:07.681Z,25.50
2022-09-01T11:41:57.455Z,25.30
2022-09-01T11:44:39.791Z,25.50
2022-09-01T11:47:18.411Z,26.00
2022-09-01T11:50:08.065Z,26.40
2022-09-01T11:52:41.602Z,26.50
2022-09-01T11:55:12.591Z,26.20
2022-09-01T11:57:42.586Z,26.30
2022-09-01T12:00:14.767Z,26.40
2022-09-01T12:02:48.018Z,26.20
2022-09-01T12:05:33.629Z,26.00
2022-09-01T12:08:06.695Z,25.70
2022-09-01T12:10:40.334Z,25.80
2022-09-01T12:13:12.460Z,26.50
2022-09-01T12:16:00.761Z,26.80
2022-09-01T12:18:35.212Z,26.70
2022-09-01T12:21:08.105Z,26.20
2022-09-01T12:23:40.413Z,25.60
2022-09-01T12:26:15.936Z,25.50
2022-09-01T12:28:46.217Z,25.70
2022-09-01T12:31:19.992Z,26.00
2022-09-01T12:33:49.987Z,26.10
2022-09-01T12:36:29.756Z,26.50
2022-09-01T12:39:25.396Z,26.80
2022-09-01T12:42:07.676Z,26.40
2022-09-01T12:44:48.411Z,26.50
2022-09-01T12:47:51.639Z,26.10
2022-09-01T12:50:44.910Z,26.60
2022-09-01T12:53:30.733Z,26.80
2022-09-01T12:56:31.388Z,26.80
2022-09-01T12:59:15.461Z,26.30
2022-09-01T13:01:46.130Z,26.40
2022-09-01T13:05:32.787Z,26.20
2022-09-01T13:08:08.769Z,26.20
2022-09-01T13:10:43.187Z,26.70
2022-09-01T13:13:14.160Z,27.10
2022-09-01T13:15:48.370Z,27.50
2022-09-01T13:18:17.378Z,27.50
2022-09-01T13:20:47.401Z,27.30
2022-09-01T13:23:17.375Z,27.30
2022-09-01T13:25:46.786Z,27.00
2022-09-01T13:28:17.367Z,27.30
2022-09-01T13:31:28.553Z,27.60
2022-09-01T13:36:51.766Z,27.70
2022-09-01T13:39:22.740Z,27.60
2022-09-01T13:41:51.574Z,27.40
2022-09-01T13:44:20.736Z,27.80
2022-09-01T13:49:44.922Z,27.70
2022-09-01T13:52:30.804Z,27.70
2022-09-01T13:54:59.448Z,27.50
2022-09-01T13:57:28.180Z,27.60
2022-09-01T14:00:07.873Z,27.70
2022-09-01T14:02:36.972Z,27.50
2022-09-01T14:05:07.072Z,27.70
2022-09-01T14:07:37.314Z,28.10
2022-09-01T14:10:07.757Z,28.30
2022-09-01T14:12:37.549Z,28.10
2022-09-01T14:15:13.871Z,28.10
2022-09-01T14:17:45.589Z,27.50
2022-09-01T14:20:19.558Z,27.50
2022-09-01T14:22:51.470Z,27.90
2022-09-01T14:25:21.863Z,28.10
2022-09-01T14:27:53.460Z,28.20
2022-09-01T14:30:29.172Z,27.80
2022-09-01T14:33:01.161Z,26.90
2022-09-01T14:35:33.828Z,26.80
2022-09-01T14:38:06.505Z,26.90
2022-09-01T14:40:39.837Z,26.40
2022-09-01T14:43:12.831Z,26.60
2022-09-01T14:45:44.803Z,27.10
2022-09-01T14:48:17.168Z,27.60
2022-09-01T14:50:51.247Z,28.00
2022-09-01T14:53:22.710Z,28.50
2022-09-01T14:55:55.507Z,28.70
2022-09-01T14:58:26.689Z,29.00
2022-09-01T15:01:03.470Z,28.70
2022-09-01T15:05:23.602Z,28.70
2022-09-01T15:07:52.984Z,28.50
2022-09-01T15:10:26.092Z,28.80
2022-09-01T15:13:01.830Z,28.60
2022-09-01T15:15:31.899Z,28.60
2022-09-01T15:18:04.907Z,29.10
2022-09-01T15:20:47.010Z,29.70
2022-09-01T15:23:19.721Z,29.80
2022-09-01T15:25:56.538Z,29.80
2022-09-01T15:28:26.920Z,29.00
2022-09-01T15:31:00.549Z,28.50
2022-09-01T15:33:29.492Z,28.90
2022-09-01T15:35:59.432Z,27.80
2022-09-01T15:38:30.676Z,27.40
2022-09-01T15:41:01.772Z,27.60
2022-09-01T15:43:33.302Z,28.20
2022-09-01T15:46:05.973Z,28.20
2022-09-01T15:48:35.678Z,28.10
2022-09-01T15:51:33.262Z,28.50
2022-09-01T15:54:06.267Z,28.50
2022-09-01T15:56:35.950Z,28.80
2022-09-01T15:59:08.901Z,29.20
2022-09-01T16:01:41.347Z,29.30
2022-09-01T16:04:19.069Z,28.60
2022-09-01T16:06:51.064Z,28.00
2022-09-01T16:09:22.239Z,27.80
2022-09-01T16:11:50.736Z,27.60
2022-09-01T16:14:20.813Z,27.50
2022-09-01T16:17:03.470Z,27.20
2022-09-01T16:19:44.000Z,26.80
2022-09-01T16:22:24.399Z,27.00
2022-09-01T16:24:57.920Z,27.00
2022-09-01T16:27:34.361Z,27.10
2022-09-01T16:30:08.228Z,27.10
2022-09-01T16:32:39.400Z,26.80
2022-09-01T16:35:20.962Z,26.80
2022-09-01T16:38:03.463Z,26.50
2022-09-01T16:40:45.229Z,26.60
2022-09-01T16:43:28.430Z,26.50
2022-09-01T16:46:09.261Z,26.10
2022-09-01T16:48:48.337Z,25.50
2022-09-01T16:51:31.587Z,25.20
2022-09-01T16:54:24.981Z,25.30
2022-09-01T16:57:05.079Z,24.90
2022-09-01T16:59:52.008Z,24.30
2022-09-01T17:05:31.228Z,23.80
2022-09-01T17:08:12.630Z,24.10
2022-09-01T17:10:49.173Z,24.50
2022-09-01T17:13:23.232Z,24.60
2022-09-01T17:16:02.754Z,24.30
2022-09-01T17:18:39.109Z,23.90
2022-09-01T17:21:19.536Z,23.70
2022-09-01T17:24:12.530Z,23.20
2022-09-01T17:26:47.889Z,23.20
2022-09-01T17:29:24.753Z,23.20
2022-09-01T17:32:04.803Z,22.80
2022-09-01T17:34:47.096Z,22.70
2022-09-01T17:37:33.128Z,22.50
2022-09-01T17:40:18.926Z,22.00
2022-09-01T17:42:55.590Z,21.40
2022-09-01T17:45:32.381Z,20.60
2022-09-01T17:48:14.322Z,19.60
2022-09-01T17:51:04.895Z,18.80
2022-09-01T17:53:47.819Z,18.20
2022-09-01T17:56:47.486Z,17.60
2022-09-01T17:59:29.374Z,17.20
2022-09-01T18:02:23.679Z,16.90
2022-09-01T18:05:10.776Z,16.70
2022-09-01T18:08:05.502Z,16.50
2022-09-01T18:10:42.444Z,16.40
2022-09-01T18:13:30.941Z,16.20
2022-09-01T18:16:17.404Z,16.10
2022-09-01T18:18:51.190Z,15.90
2022-09-01T18:21:25.832Z,15.90
2022-09-01T18:24:07.119Z,15.80
2022-09-01T18:26:42.700Z,15.70
2022-09-01T18:29:12.078Z,15.50
2022-09-01T18:32:24.123Z,15.40
2022-09-01T18:35:27.589Z,15.30
2022-09-01T18:38:17.049Z,15.20
2022-09-01T18:41:05.671Z,15.10
2022-09-01T18:43:44.118Z,15.10
2022-09-01T18:46:29.534Z,15.10
2022-09-01T18:49:09.575Z,15.10
2022-09-01T18:51:58.216Z,15.00
2022-09-01T18:54:35.874Z,14.80
2022-09-01T18:57:08.033Z,14.70
2022-09-01T19:00:09.900Z,14.60
2022-09-01T19:05:59.997Z,14.30
2022-09-01T19:08:48.555Z,14.20
2022-09-01T19:11:32.796Z,14.10
2022-09-01T19:14:19.194Z,14.00
2022-09-01T19:17:08.772Z,13.80
2022-09-01T19:19:47.699Z,13.80
2022-09-01T19:22:25.136Z,13.80
2022-09-01T19:25:33.461Z,13.70
2022-09-01T19:28:10.595Z,13.60
2022-09-01T19:30:50.854Z,13.50
2022-09-01T19:33:27.916Z,13.30
2022-09-01T19:36:03.884Z,13.20
2022-09-01T19:38:39.885Z,13.00
2022-09-01T19:41:30.523Z,12.90
2022-09-01T19:44:10.216Z,12.80
2022-09-01T19:46:54.264Z,12.70
2022-09-01T19:49:38.627Z,12.50
2022-09-01T19:52:19.574Z,12.30
2022-09-01T19:55:02.424Z,12.20
2022-09-01T19:57:40.893Z,12.00
2022-09-01T20:00:19.406Z,11.90
2022-09-01T20:03:01.362Z,11.70
2022-09-01T20:05:41.436Z,11.60
2022-09-01T20:08:21.280Z,11.60
2022-09-01T20:11:05.361Z,11.50
2022-09-01T20:14:06.674Z,11.40
2022-09-01T20:16:42.005Z,11.40
2022-09-01T20:19:17.281Z,11.40
2022-09-01T20:21:49.364Z,11.40
2022-09-01T20:24:33.092Z,11.40
2022-09-01T20:27:15.780Z,11.30
2022-09-01T20:29:55.982Z,11.30
2022-09-01T20:32:34.963Z,11.20
2022-09-01T20:35:15.874Z,11.00
2022-09-01T20:37:50.915Z,10.80
2022-09-01T20:40:27.296Z,10.70
2022-09-01T20:43:18.668Z,10.60
2022-09-01T20:45:47.971Z,10.60
2022-09-01T20:48:20.708Z,10.50
2022-09-01T20:51:00.021Z,10.60
2022-09-01T20:53:52.403Z,10.50
2022-09-01T20:56:35.011Z,10.60
2022-09-01T20:59:17.438Z,10.50
2022-09-01T21:05:41.401Z,10.20
2022-09-01T21:08:34.183Z,10.10
2022-09-01T21:11:30.496Z,10.00
2022-09-01T21:14:31.667Z,10.00
2022-09-01T21:17:14.599Z,10.00
2022-09-01T21:20:02.754Z,10.10
2022-09-01T21:22:32.998Z,10.20
2022-09-01T21:25:01.963Z,10.20
2022-09-01T21:27:37.038Z,10.20
2022-09-01T21:30:09.891Z,10.20
2022-09-01T21:32:39.829Z,10.10
2022-09-01T21:35:12.689Z,10.00
2022-09-01T21:37:42.836Z,9.90
2022-09-01T21:40:13.523Z,9.80
2022-09-01T21:42:54.584Z,9.70
2022-09-01T21:45:24.862Z,9.60
2022-09-01T21:47:54.797Z,9.50
2022-09-01T21:50:26.067Z,9.60
2022-09-01T21:52:56.013Z,9.60
2022-09-01T21:55:25.429Z,9.60
2022-09-01T21:57:54.989Z,9.50
2022-09-01T22:00:27.684Z,9.60
2022-09-01T22:02:58.152Z,9.50
2022-09-01T22:05:27.930Z,9.40
2022-09-01T22:07:59.019Z,9.40
2022-09-01T22:10:31.583Z,9.40
2022-09-01T22:13:04.142Z,9.40
2022-09-01T22:15:32.877Z,9.30
2022-09-01T22:18:01.452Z,9.30
2022-09-01T22:20:32.152Z,9.30
2022-09-01T22:23:03.714Z,9.20
2022-09-01T22:25:34.971Z,9.10
2022-09-01T22:28:07.150Z,9.00
2022-09-01T22:30:36.682Z,8.90
2022-09-01T22:33:07.798Z,8.80
2022-09-01T22:35:40.691Z,8.70
2022-09-01T22:38:10.973Z,8.70
2022-09-01T22:40:46.328Z,8.70
2022-09-01T22:43:17.893Z,8.70
2022-09-01T22:45:48.286Z,8.70
2022-09-01T22:48:18.845Z,8.80
2022-09-01T22:50:49.345Z,8.70
2022-09-01T22:53:22.933Z,8.70
2022-09-01T22:55:53.159Z,8.60
2022-09-01T22:58:22.376Z,8.50
2022-09-01T23:00:56.005Z,8.50
2022-09-01T23:05:22.358Z,8.50
2022-09-01T23:07:51.307Z,8.60
2022-09-01T23:10:19.884Z,8.50
2022-09-01T23:12:48.510Z,8.50
2022-09-01T23:15:17.614Z,8.50
2022-09-01T23:17:46.464Z,8.50
2022-09-01T23:20:16.633Z,8.40
2022-09-01T23:22:47.456Z,8.40
2022-09-01T23:25:18.250Z,8.30
2022-09-01T23:27:47.182Z,8.30
2022-09-01T23:30:17.338Z,8.20
2022-09-01T23:32:46.037Z,8.20
2022-09-01T23:35:15.345Z,8.30
2022-09-01T23:37:46.452Z,8.30
2022-09-01T23:40:15.189Z,8.30
2022-09-01T23:42:44.026Z,8.30
2022-09-01T23:45:14.162Z,8.20
2022-09-01T23:47:43.196Z,8.20
2022-09-01T23:50:12.695Z,8.10
2022-09-01T23:52:41.212Z,8.10
2022-09-01T23:55:11.850Z,8.00
2022-09-01T23:57:40.635Z,7.90
